Terminal Aerodrome Forecast
Issued by NWS

Home | Current Version | Previous Version | Text Only | Print | Product List | Glossary On
Versions: 1 2 3 4 5 6 7 8 9 10 11 12 13 14
000
FTUS43 KIND 261720
TAFHUF
TAF
KHUF 261720Z 2618/2718 29013G18KT P6SM SCT060
     FM262100 29011G19KT P6SM VCSH BKN060
     FM270100 29007KT P6SM VCSH SCT060 BKN110
     FM270300 29004KT P6SM BKN140=

USA.gov is the U.S. government's official web portal to all federal, state and local government web resources and services.